Last 30 Days

Canyon Lodge

Hourly Data | America/Los_Angeles
as of 2/5/23 10:14 PM PST
Date & Time Temp (°F) WindChill (°F) RH (%) Dew Pt (°F) Wet Bulb (°F) Wind Dir (°) Wind Spd (mph) Wind Gust (mph) Wind Gst Dir (°) Daily Min Temp (°F) Daily Max Temp (°F) Daily Max Wind (mph)
2/5/23 - 2200 9.5 - 91 7.3 9.2 WSW | 253 2.6 6.6 WSW | 243 8.4 28.5 35.0
2/5/23 - 2100 10.9 2.9 91 8.7 10.6 W | 266 4.5 7.5 W | 268 9.4 28.5 35.0
2/5/23 - 2000 14.2 - 93 12.4 13.8 W | 263 2.4 7.5 SW | 223 13.2 28.5 35.0
2/5/23 - 1900 16.6 11.4 94 15.2 16.2 SW | 218 3.3 12.5 W | 260 15.9 28.5 35.0
2/5/23 - 1800 17.4 9.4 94 16.1 17.0 SSW | 210 5.5 16.3 W | 273 16.8 28.5 35.0
2/5/23 - 1700 17.9 12.0 95 16.7 17.5 SW | 216 3.8 11.3 SW | 230 17.8 28.5 35.0
2/5/23 - 1600 18.4 12.0 95 17.1 18.0 SW | 214 4.3 15.1 WSW | 249 18.0 28.5 35.0
2/5/23 - 1500 19.1 12.1 95 17.9 18.7 SSW | 205 4.9 16.9 S | 186 18.0 28.5 35.0
2/5/23 - 1400 19.9 13.4 96 18.8 19.5 SSW | 209 4.5 13.9 SSW | 202 18.0 28.5 35.0
2/5/23 - 1300 19.4 - 96 18.4 19.1 SW | 222 3.0 13.6 SW | 226 18.0 28.5 35.0
2/5/23 - 1200 19.5 12.7 95 18.3 19.1 SW | 217 4.8 22.0 WSW | 254 18.0 28.5 35.0
2/5/23 - 1100 18.5 13.2 95 17.2 18.1 WSW | 255 3.6 13.9 WSW | 255 18.0 28.5 35.0
2/5/23 - 1000 19.1 13.7 95 17.8 18.7 W | 269 3.7 18.1 SW | 235 18.4 28.5 35.0
2/5/23 - 0900 19.3 14.8 94 17.8 18.8 NW | 324 3.1 23.8 WNW | 290 18.7 28.5 35.0
2/5/23 - 0800 18.9 - 89 16.2 18.1 SSW | 192 2.4 13.9 NNW | 332 18.7 28.5 35.0
2/5/23 - 0700 18.9 14.0 88 16.1 18.1 SSW | 193 3.3 12.8 WSW | 254 18.7 28.5 35.0
2/5/23 - 0600 19.2 12.9 89 16.5 18.4 SSW | 203 4.3 21.9 SW | 215 19.0 28.5 35.0
2/5/23 - 0500 20.2 13.7 92 18.4 19.6 S | 178 4.6 26.2 SE | 140 19.4 28.5 35.0
2/5/23 - 0400 22.5 17.0 96 21.4 22.0 SSW | 213 4.0 20.0 SW | 217 20.7 28.5 35.0
2/5/23 - 0300 26.8 20.8 98 26.4 26.5 SSW | 207 5.2 35.0 NNW | 332 24.8 28.5 35.0
2/5/23 - 0200 28.2 21.8 98 27.8 28.0 E | 86 6.0 31.7 SSE | 163 26.3 28.5 31.7
2/5/23 - 0100 27.1 20.6 98 26.6 26.8 NNE | 20 5.7 24.9 WSW | 256 26.3 28.0 24.9
2/5/23 - 0000 27.9 22.5 97 27.1 27.4 SW | 216 4.7 27.9 SW | 235 23.8 42.1 28.0
2/4/23 - 2300 27.9 23.6 96 27.0 27.5 ESE | 115 3.8 17.5 WNW | 289 23.8 42.1 28.0
2/4/23 - 2200 27.3 - 96 26.4 26.9 NNW | 343 2.5 15.8 W | 280 23.8 42.1 28.0
2/4/23 - 2100 29.7 - 63 17.8 26.0 W | 260 2.6 15.6 W | 278 23.8 42.1 28.0
2/4/23 - 2000 31.5 - 47 13.7 26.2 WSW | 248 1.7 11.0 W | 262 23.8 42.1 28.0
2/4/23 - 1900 31.0 26.1 57 17.4 26.7 WSW | 244 4.8 17.6 SSW | 208 23.8 42.1 28.0
2/4/23 - 1800 32.0 26.8 53 16.5 27.2 WSW | 248 5.4 15.3 W | 275 23.8 42.1 28.0
2/4/23 - 1700 34.6 29.4 39 12.3 27.9 WSW | 251 6.0 22.4 W | 274 23.8 42.1 28.0
2/4/23 - 1600 35.3 28.8 38 12.1 28.3 WSW | 258 8.2 24.7 WSW | 256 23.8 42.1 28.0
2/4/23 - 1500 35.2 28.4 38 12.1 28.2 WSW | 255 8.5 26.3 SW | 218 23.8 42.1 28.0
2/4/23 - 1400 34.5 27.5 40 12.6 27.9 WSW | 244 8.7 28.0 WNW | 293 23.8 42.1 28.0
2/4/23 - 1300 36.1 29.8 34 10.4 28.5 WSW | 249 8.0 24.1 WSW | 254 23.8 42.1 24.1
2/4/23 - 1200 38.2 33.4 26 6.3 29.1 WSW | 246 6.3 20.4 W | 276 23.8 42.1 20.4
2/4/23 - 1100 41.0 38.7 25 8.1 31.1 WSW | 252 3.8 14.9 SW | 224 23.8 42.1 18.1
2/4/23 - 1000 40.6 38.6 25 7.6 30.7 W | 259 3.4 15.9 NW | 326 23.8 41.7 18.1
2/4/23 - 0900 38.2 35.2 23 3.4 28.7 WSW | 237 4.1 14.0 NW | 306 23.8 38.9 18.1
2/4/23 - 0800 34.9 32.2 25 2.3 26.4 SW | 226 3.4 11.7 S | 188 23.8 37.0 18.1
2/4/23 - 0700 33.0 30.3 24 -0.4 24.9 WSW | 237 3.2 9.7 WSW | 258 23.8 36.3 18.1
2/4/23 - 0600 33.7 30.5 16 -8.5 24.5 SW | 235 3.6 13.2 W | 266 23.8 36.3 18.1
2/4/23 - 0500 30.4 - 20 -6.5 22.5 SW | 234 2.1 18.1 W | 275 23.8 34.4 18.1
2/4/23 - 0400 30.4 - 19 -7.2 22.4 SSW | 210 2.2 12.8 E | 94 23.8 34.4 12.8
2/4/23 - 0300 25.9 - 31 -0.5 20.0 WNW | 285 2.1 9.4 N | 350 23.8 33.1 10.0
2/4/23 - 0200 27.8 - 28 -1.5 21.2 N | 4 2.1 10.0 NNE | 33 24.9 33.1 10.0
2/4/23 - 0100 27.9 - 29 -1.0 21.4 SSW | 213 1.3 8.8 SW | 236 24.9 33.1 8.8
2/4/23 - 0000 30.4 - 24 -2.3 22.9 WSW | 241 1.8 9.4 SW | 228 18.4 36.1 34.0
2/3/23 - 2300 28.3 - 34 3.5 22.2 N | 352 2.2 7.9 NE | 54 18.4 36.1 34.0
2/3/23 - 2200 30.7 - 35 5.9 24.2 N | 358 2.3 8.9 N | 6 18.4 36.1 34.0
2/3/23 - 2100 31.2 - 40 9.4 25.2 WSW | 258 2.3 15.9 W | 276 18.4 36.1 34.0
2/3/23 - 2000 30.2 26.4 43 10.4 24.7 SW | 224 3.6 19.0 WNW | 290 18.4 36.1 34.0
2/3/23 - 1900 31.4 25.3 43 11.4 25.6 SW | 226 6.2 22.2 WSW | 243 18.4 36.1 34.0
2/3/23 - 1800 30.2 23.2 42 9.6 24.5 WSW | 242 7.2 25.3 SSW | 201 18.4 36.1 34.0
2/3/23 - 1700 30.2 23.2 40 8.7 24.3 WSW | 242 7.2 21.0 WSW | 237 18.4 36.1 34.0
2/3/23 - 1600 31.6 24.7 36 7.8 25.1 WSW | 247 7.4 26.4 W | 264 18.4 36.1 34.0
2/3/23 - 1500 32.7 27.3 34 7.1 25.7 WSW | 246 5.6 18.4 W | 265 18.4 36.1 34.0
2/3/23 - 1400 32.3 26.2 33 6.6 25.4 WSW | 248 6.6 22.4 W | 264 18.4 36.1 34.0
2/3/23 - 1300 31.9 24.5 37 8.6 25.5 WSW | 254 8.5 25.5 W | 262 18.4 36.1 34.0
2/3/23 - 1200 33.2 26.1 35 8.6 26.3 WSW | 250 8.3 27.0 W | 281 18.4 36.1 34.0
2/3/23 - 1100 34.7 29.0 32 7.6 27.1 WSW | 237 6.6 23.5 WNW | 282 18.4 36.1 34.0
2/3/23 - 1000 34.8 27.9 31 7.2 27.1 WSW | 251 8.6 34.0 WSW | 257 18.4 35.7 34.0
2/3/23 - 0900 32.8 26.5 28 3.3 25.2 WSW | 254 6.9 28.5 WSW | 241 18.4 34.9 28.5
2/3/23 - 0800 31.6 26.0 30 3.9 24.5 WSW | 246 5.8 18.8 W | 272 18.4 34.9 23.8
2/3/23 - 0700 30.8 24.5 32 4.7 24.1 WSW | 246 6.5 20.2 WNW | 286 18.4 34.9 23.8
2/3/23 - 0600 31.3 24.1 33 5.2 24.5 WSW | 244 7.8 23.8 WNW | 300 18.4 34.9 23.8
2/3/23 - 0500 32.1 24.3 33 6.2 25.2 WSW | 255 9.2 23.3 W | 269 18.4 34.9 23.3
2/3/23 - 0400 32.7 26.6 33 6.5 25.6 WSW | 245 6.6 21.5 SW | 232 18.4 34.9 21.5
2/3/23 - 0300 33.0 26.8 33 7.0 25.9 WSW | 244 6.8 18.9 SW | 229 18.4 34.9 18.9
2/3/23 - 0200 29.3 24.3 42 7.5 23.5 WSW | 244 4.6 18.8 W | 272 18.4 34.9 18.8
2/3/23 - 0100 20.6 - 67 11.2 18.2 W | 263 1.7 4.9 W | 271 18.8 21.7 4.9
2/3/23 - 0000 21.2 - 62 10.4 18.4 W | 261 2.8 5.8 WSW | 257 19.6 38.4 13.9
2/2/23 - 2300 21.3 - 59 9.1 18.2 WSW | 256 2.0 7.0 WSW | 248 19.6 38.4 13.9
2/2/23 - 2200 21.7 - 59 9.5 18.6 W | 264 1.0 5.4 WSW | 246 19.6 38.4 13.9
2/2/23 - 2100 23.8 - 54 9.6 20.1 WSW | 256 1.2 5.0 SW | 225 19.6 38.4 13.9
2/2/23 - 2000 26.9 - 50 10.5 22.4 WSW | 254 0.8 5.7 W | 259 19.6 38.4 13.9
2/2/23 - 1900 30.4 - 42 9.8 24.6 SW | 222 1.5 7.9 WSW | 246 19.6 38.4 13.9
2/2/23 - 1800 33.2 - 38 10.2 26.6 SW | 223 2.6 13.9 SW | 234 19.6 38.4 13.9
2/2/23 - 1700 32.7 - 42 11.7 26.5 SW | 236 1.2 10.2 SE | 127 19.6 38.4 10.2
2/2/23 - 1600 33.6 - 39 11.4 27.1 E | 98 0.3 2.8 NNE | 26 19.6 38.4 10.1
2/2/23 - 1500 35.1 - 36 10.9 27.9 ESE | 108 0.4 4.0 SE | 131 19.6 38.4 10.1
2/2/23 - 1400 37.3 - 32 10.5 29.2 E | 97 0.5 3.6 NNE | 24 19.6 38.4 10.1
2/2/23 - 1300 37.5 - 31 9.5 29.2 SE | 129 0.5 4.1 SE | 139 19.6 38.4 10.1
2/2/23 - 1200 36.9 - 31 9.4 28.8 ESE | 106 0.5 3.9 ESE | 123 19.6 37.9 10.1
2/2/23 - 1100 35.8 - 33 9.5 28.1 SE | 124 0.4 3.7 SE | 137 19.6 37.2 10.1
2/2/23 - 1000 31.7 - 41 10.4 25.6 S | 169 0.2 2.8 WSW | 248 19.6 34.3 10.1
2/2/23 - 0900 27.6 - 45 8.8 22.6 SW | 226 1.4 5.4 SSW | 211 19.6 32.7 10.1
2/2/23 - 0800 22.2 - 49 6.1 18.4 SW | 222 0.4 4.7 SW | 222 19.6 32.7 10.1
2/2/23 - 0700 26.0 21.8 41 5.5 20.9 WSW | 254 3.5 9.9 W | 270 19.6 32.7 10.1
2/2/23 - 0600 25.2 - 44 6.1 20.5 W | 262 3.0 8.5 W | 262 19.6 32.7 10.1
2/2/23 - 0500 26.2 - 43 6.7 21.3 W | 265 1.4 7.8 SSW | 205 19.6 32.7 10.1
2/2/23 - 0400 27.8 - 41 6.6 22.3 WSW | 250 2.7 10.1 W | 265 19.6 32.7 10.1
2/2/23 - 0300 22.0 - 52 6.9 18.4 W | 262 2.2 7.6 WSW | 258 19.6 23.1 7.6
2/2/23 - 0200 21.2 - 53 6.8 17.8 W | 266 2.0 6.5 W | 262 19.6 23.1 6.5
2/2/23 - 0100 21.3 - 53 6.9 17.9 W | 268 1.7 6.3 WSW | 240 20.1 23.1 6.3
2/2/23 - 0000 21.4 - 52 6.7 17.9 W | 269 1.5 6.0 WSW | 238 13.9 37.3 8.4
2/1/23 - 2300 20.5 - 55 6.8 17.2 W | 263 0.5 4.8 W | 266 13.9 37.3 8.4
2/1/23 - 2200 21.7 - 51 6.4 18.0 W | 274 2.0 6.1 WSW | 250 13.9 37.3 8.4
2/1/23 - 2100 22.3 - 50 6.4 18.5 W | 274 1.7 6.8 W | 263 13.9 37.3 8.4
2/1/23 - 2000 22.5 - 50 6.6 18.7 W | 281 1.2 5.4 W | 265 13.9 37.3 8.4
2/1/23 - 1900 23.3 - 49 7.0 19.3 W | 269 2.3 6.2 W | 266 13.9 37.3 8.4
2/1/23 - 1800 24.2 - 48 7.3 20.0 W | 262 2.3 6.1 W | 264 13.9 37.3 8.4
2/1/23 - 1700 25.9 21.2 46 7.8 21.3 W | 259 3.9 6.0 WSW | 251 13.9 37.3 8.4
2/1/23 - 1600 31.5 - 35 7.1 24.9 SW | 231 1.2 5.3 SW | 222 13.9 37.3 8.4
2/1/23 - 1500 35.2 - 32 8.0 27.5 SSW | 194 0.3 2.6 S | 186 13.9 37.3 8.4
2/1/23 - 1400 35.8 - 29 6.7 27.7 S | 179 0.6 5.2 ESE | 118 13.9 37.3 8.4
2/1/23 - 1300 36.0 - 29 6.6 27.8 SSE | 150 0.6 4.8 SE | 131 13.9 36.8 8.4
2/1/23 - 1200 34.5 - 28 4.6 26.5 S | 170 0.5 4.7 S | 176 13.9 35.7 8.4
2/1/23 - 1100 33.6 - 29 4.7 25.9 SSE | 164 0.5 4.5 SW | 227 13.9 35.5 8.4
2/1/23 - 1000 28.5 - 39 6.5 22.8 SSW | 202 - - SSW | 208 13.9 32.0 8.4
2/1/23 - 0900 23.8 - 47 6.2 19.5 SW | 236 0.6 3.3 WSW | 238 13.9 28.6 8.4
2/1/23 - 0800 18.2 - 53 3.7 15.0 W | 273 1.8 7.7 W | 262 13.9 19.8 8.4
2/1/23 - 0700 18.1 10.5 51 3.1 14.9 W | 265 5.3 8.4 W | 263 13.9 19.8 8.4
2/1/23 - 0600 16.3 - 53 2.2 13.4 W | 270 1.3 6.6 SW | 217 13.9 19.3 7.4
2/1/23 - 0500 15.6 - 53 1.6 12.8 WNW | 293 - - W | 265 13.9 19.3 7.4
2/1/23 - 0400 16.2 - 53 2.1 13.3 WNW | 291 - - NW | 306 13.9 19.3 7.4
2/1/23 - 0300 17.8 - 48 1.5 14.4 W | 272 2.3 6.2 WSW | 244 14.7 19.3 7.4
2/1/23 - 0200 16.7 - 45 -1.1 13.2 WNW | 287 1.4 6.2 W | 265 14.7 18.9 7.4
2/1/23 - 0100 16.9 12.0 41 -2.6 13.2 W | 266 3.1 7.4 W | 264 15.3 18.5 7.4
2/1/23 - 0000 15.4 - 43 -3.1 12.0 WNW | 287 1.6 7.5 W | 259 1.1 30.1 11.9
1/31/23 - 2300 15.5 - 42 -3.5 12.1 WNW | 300 0.8 5.3 WSW | 244 1.1 30.1 11.9
1/31/23 - 2200 15.8 - 40 -4.2 12.2 WNW | 302 0.9 5.2 W | 262 1.1 30.1 11.9
1/31/23 - 2100 16.9 - 39 -4.1 13.0 WNW | 283 1.6 6.4 W | 266 1.1 30.1 11.9
1/31/23 - 2000 19.4 12.0 32 -5.9 14.7 W | 264 5.2 8.3 W | 261 1.1 30.1 11.9
1/31/23 - 1900 17.8 10.4 35 -5.1 13.6 W | 263 4.9 8.3 WSW | 252 1.1 30.1 11.9
1/31/23 - 1800 20.0 13.6 32 -5.5 15.2 W | 260 4.5 7.6 WSW | 254 1.1 30.1 11.9
1/31/23 - 1700 23.4 - 28 -5.1 17.7 WSW | 246 2.5 6.7 WSW | 256 1.1 30.1 11.9
1/31/23 - 1600 28.1 - 21 -6.8 20.8 NNE | 26 1.9 8.5 NNW | 340 1.1 30.1 11.9
1/31/23 - 1500 29.0 - 22 -4.8 21.6 NNE | 15 2.6 11.9 N | 351 1.1 30.1 11.9
1/31/23 - 1400 29.0 - 23 -4.0 21.8 NE | 36 2.1 8.9 N | 10 1.1 30.1 9.7
1/31/23 - 1300 27.8 23.7 22 -5.9 20.8 NNE | 16 3.7 9.7 N | 0 1.1 29.1 9.7
1/31/23 - 1200 27.0 - 22 -6.4 20.1 NNE | 31 2.6 9.3 NNW | 348 1.1 28.9 9.3
1/31/23 - 1100 26.1 - 21 -8.5 19.3 ENE | 74 1.8 7.1 NNE | 29 1.1 27.7 9.2
1/31/23 - 1000 22.3 - 27 -6.8 16.8 SE | 139 1.2 9.2 NNE | 33 1.1 25.4 9.2
1/31/23 - 0900 14.9 - 36 -7.3 11.2 SW | 230 1.6 5.6 SW | 218 1.1 18.1 9.2
1/31/23 - 0800 9.4 - 40 -10.0 6.6 WSW | 255 1.6 5.5 SW | 219 1.1 11.2 9.2
1/31/23 - 0700 8.5 - 40 -11.0 5.8 WSW | 256 2.0 5.7 SSW | 208 1.1 10.2 9.2
1/31/23 - 0600 7.2 - 39 -12.6 4.6 W | 263 2.0 7.4 WSW | 245 1.1 8.4 9.2
1/31/23 - 0500 5.4 - 40 -13.7 3.1 WNW | 285 1.2 6.2 SSW | 198 1.1 7.9 9.2
1/31/23 - 0400 6.6 - 38 -13.7 4.0 W | 261 2.0 9.2 SW | 219 1.1 7.9 9.2
1/31/23 - 0300 6.7 - 38 -13.8 4.1 WSW | 258 1.9 8.8 SW | 215 1.1 7.9 8.8
1/31/23 - 0200 4.4 - 42 -13.6 2.2 W | 259 1.4 6.4 W | 264 1.1 7.2 6.4
1/31/23 - 0100 2.9 - 46 -13.2 1.1 SW | 233 0.9 5.6 W | 263 1.1 4.3 5.6
1/31/23 - 0000 3.2 - 45 -13.2 1.3 WSW | 257 1.2 5.7 SW | 214 1.9 18.2 12.5
1/30/23 - 2300 3.4 - 45 -13.0 1.6 W | 267 1.6 7.8 SW | 227 1.9 18.2 12.5
1/30/23 - 2200 4.9 - 42 -13.1 2.7 WSW | 244 2.3 5.7 SW | 223 1.9 18.2 12.5
1/30/23 - 2100 4.2 - 44 -12.8 2.2 WSW | 247 1.5 8.8 SW | 223 1.9 18.2 12.5
1/30/23 - 2000 5.9 - 45 -11.1 3.7 WSW | 249 1.9 8.5 SSW | 213 1.9 18.2 12.5
1/30/23 - 1900 8.2 - 45 -9.2 5.7 S | 177 1.1 5.8 SW | 214 1.9 18.2 12.5
1/30/23 - 1800 9.8 - 40 -9.9 6.9 WNW | 286 - - NNE | 29 1.9 18.2 12.5
1/30/23 - 1700 13.2 - 34 -10.2 9.6 NNW | 343 - - SSW | 196 1.9 18.2 12.5
1/30/23 - 1600 15.7 - 40 -4.2 12.1 NNW | 338 1.9 11.7 N | 4 1.9 18.2 12.5
1/30/23 - 1500 15.6 - 50 0.4 12.7 NE | 38 2.4 12.5 NNE | 13 1.9 18.2 12.5
1/30/23 - 1400 15.0 - 61 3.8 12.6 N | 4 2.2 10.2 NW | 322 1.9 18.2 10.2
1/30/23 - 1300 15.7 - 65 5.9 13.6 NNE | 24 2.1 8.5 NNE | 22 1.9 18.2 9.5
1/30/23 - 1200 16.0 - 69 7.6 14.1 E | 100 1.6 6.1 SE | 133 1.9 17.5 9.5
1/30/23 - 1100 15.8 - 70 7.8 14.0 SSE | 168 1.6 5.8 SE | 135 1.9 17.0 9.5
1/30/23 - 1000 14.4 - 71 6.7 12.7 S | 184 0.9 7.1 SE | 138 1.9 15.6 9.5
1/30/23 - 0900 9.4 - 77 3.7 8.4 SSW | 197 0.4 3.2 SE | 142 1.9 12.8 9.5
1/30/23 - 0800 3.4 - 84 -0.5 3.2 WSW | 251 1.6 4.5 W | 267 1.9 9.6 9.5
1/30/23 - 0700 4.7 - 84 1.0 4.5 W | 260 1.1 4.2 W | 259 2.7 9.6 9.5
1/30/23 - 0600 7.5 - 86 4.0 7.1 S | 169 1.0 4.7 SSW | 208 6.4 9.6 9.5
1/30/23 - 0500 8.4 - 84 4.5 7.8 WNW | 291 1.0 6.1 NNE | 27 7.6 9.6 9.5
1/30/23 - 0400 8.2 - 85 4.6 7.7 SSW | 194 0.7 6.3 NNW | 330 7.6 9.6 9.5
1/30/23 - 0300 8.9 - 84 4.9 8.3 S | 188 - - SSE | 162 8.5 9.6 9.5
1/30/23 - 0200 9.0 - 83 4.8 8.4 NW | 325 1.9 8.0 NNE | 17 8.8 9.6 9.5
1/30/23 - 0100 9.2 - 84 5.2 8.6 NNW | 328 2.2 9.5 NW | 322 8.8 9.6 9.5
1/30/23 - 0000 9.9 - 83 5.7 9.2 NNW | 338 1.6 9.1 NNW | 329 9.4 29.0 29.8
1/29/23 - 2300 11.0 - 83 6.8 10.2 NNW | 337 1.0 7.4 NNE | 28 10.8 29.0 29.8
1/29/23 - 2200 11.4 - 83 7.3 10.6 NNW | 337 1.2 9.5 NW | 326 11.1 29.0 29.8
1/29/23 - 2100 12.4 - 84 8.4 11.6 NNW | 348 0.9 6.7 NE | 49 11.8 29.0 29.8
1/29/23 - 2000 13.3 - 85 9.6 12.5 N | 350 0.8 6.6 N | 349 12.8 29.0 29.8
1/29/23 - 1900 14.3 - 86 10.8 13.5 W | 264 0.8 6.8 WSW | 248 14.0 29.0 29.8
1/29/23 - 1800 15.4 - 87 12.2 14.6 NNW | 338 1.7 7.8 NNW | 329 14.8 29.0 29.8
1/29/23 - 1700 16.7 - 86 13.2 15.8 NNW | 346 2.9 11.5 NNW | 334 16.0 29.0 29.8
1/29/23 - 1600 18.0 - 83 13.6 16.8 NNW | 331 2.3 9.4 N | 5 17.6 29.0 29.8
1/29/23 - 1500 19.8 - 82 15.2 18.5 NNW | 328 1.7 8.2 NW | 321 18.2 29.0 29.8
1/29/23 - 1400 21.0 - 79 15.3 19.3 W | 276 1.5 9.1 SSW | 195 18.7 29.0 29.8
1/29/23 - 1300 21.4 - 73 14.1 19.3 NW | 304 2.7 11.5 WSW | 256 18.7 29.0 29.8
1/29/23 - 1200 20.6 15.1 67 11.4 18.2 WSW | 253 3.9 15.4 WNW | 284 18.7 29.0 29.8
1/29/23 - 1100 20.2 13.9 71 12.3 18.1 WSW | 237 4.4 14.9 WNW | 285 18.7 29.0 29.8
1/29/23 - 1000 19.8 12.9 72 12.1 17.8 SW | 219 4.8 17.5 SE | 133 18.7 29.0 29.8
1/29/23 - 0900 22.1 15.4 45 4.1 18.0 SW | 230 5.1 15.8 SW | 226 19.8 29.0 29.8
1/29/23 - 0800 20.3 13.0 57 7.5 17.3 SW | 225 5.3 16.7 SW | 235 19.8 29.0 29.8
1/29/23 - 0700 20.7 13.7 60 9.0 17.8 SW | 216 5.1 18.2 SW | 219 20.4 29.0 29.8
1/29/23 - 0600 21.3 13.5 60 9.6 18.4 SW | 218 6.0 18.5 WSW | 252 20.7 29.0 29.8
1/29/23 - 0500 22.6 14.6 53 7.8 19.0 SW | 233 6.6 23.8 SW | 234 21.7 29.0 29.8
1/29/23 - 0400 24.5 15.8 37 1.7 19.3 SW | 226 7.9 22.9 SW | 219 23.7 29.0 29.8
1/29/23 - 0300 26.1 17.5 26 -4.1 19.8 SW | 231 8.2 23.0 SW | 215 25.1 29.0 29.8
1/29/23 - 0200 27.5 19.2 21 -7.8 20.4 SW | 229 8.4 23.6 W | 272 26.9 29.0 29.8
1/29/23 - 0100 28.3 19.5 20 -7.5 21.0 WSW | 242 9.4 29.8 WNW | 290 27.8 29.0 29.8
1/29/23 - 0000 28.7 21.5 23 -4.7 21.5 SW | 226 6.9 26.1 WSW | 248 12.1 40.1 26.1
1/28/23 - 2300 29.4 22.2 24 -3.3 22.1 SSW | 197 7.2 22.0 S | 174 12.1 40.1 22.0
1/28/23 - 2200 30.2 24.0 30 2.4 23.3 SW | 214 6.1 17.5 SW | 220 12.1 40.1 17.5
1/28/23 - 2100 30.5 25.3 37 7.5 24.3 SSW | 204 5.0 16.3 S | 175 12.1 40.1 17.5
1/28/23 - 2000 29.0 25.3 44 9.7 23.8 WSW | 254 3.5 15.2 SSE | 152 12.1 40.1 17.5
1/28/23 - 1900 26.0 - 59 13.6 22.5 W | 281 1.4 9.0 NE | 52 12.1 40.1 17.5
1/28/23 - 1800 30.5 - 39 8.5 24.5 WNW | 285 2.4 12.3 SW | 215 12.1 40.1 17.5
1/28/23 - 1700 31.4 - 32 5.0 24.6 WSW | 243 2.6 12.1 W | 259 12.1 40.1 17.5
1/28/23 - 1600 33.5 30.1 26 2.5 25.6 SSW | 202 3.8 13.1 SE | 138 12.1 40.1 17.5
1/28/23 - 1500 36.7 33.8 20 -0.2 27.2 SSW | 211 3.7 11.2 WSW | 240 12.1 40.1 17.5
1/28/23 - 1400 37.5 33.4 18 -2.5 27.5 SSW | 192 5.3 17.5 SW | 214 12.1 40.1 17.5
1/28/23 - 1300 38.0 33.6 15 -5.5 27.5 SSW | 196 5.7 14.7 SW | 232 12.1 40.1 14.7
1/28/23 - 1200 38.6 35.3 17 -2.7 28.2 SSW | 195 4.4 14.1 SSW | 206 12.1 40.1 14.1
1/28/23 - 1100 36.1 - 24 2.3 27.2 SSW | 208 0.7 10.4 SSW | 204 12.1 39.0 10.4
1/28/23 - 1000 31.1 - 33 5.4 24.4 SSW | 211 0.5 3.5 SW | 225 12.1 33.2 8.2
1/28/23 - 0900 27.7 - 34 3.2 21.8 SW | 227 0.8 4.7 SW | 216 12.1 30.5 8.2
1/28/23 - 0800 22.0 - 33 -2.9 17.0 W | 277 1.9 8.0 W | 268 12.1 24.0 8.2
1/28/23 - 0700 22.0 17.7 28 -6.1 16.6 W | 278 3.2 8.2 W | 273 12.1 23.7 8.2
1/28/23 - 0600 21.0 14.6 29 -6.7 15.8 W | 262 4.6 8.1 W | 264 12.1 22.5 8.1
1/28/23 - 0500 16.2 - 38 -5.5 12.4 W | 262 0.9 7.3 W | 260 12.1 21.9 7.7
1/28/23 - 0400 13.8 - 50 -1.4 11.0 WSW | 251 0.3 4.7 SSW | 210 12.1 19.2 7.7
1/28/23 - 0300 14.8 - 56 2.0 12.3 W | 264 1.6 7.3 WNW | 297 13.9 19.2 7.7
1/28/23 - 0200 16.3 - 57 3.7 13.6 W | 261 1.7 7.7 SSW | 200 14.8 19.2 7.7
1/28/23 - 0100 17.7 - 62 6.9 15.2 W | 265 2.8 6.9 WSW | 239 16.4 19.2 6.9
1/28/23 - 0000 22.1 17.8 57 8.8 18.8 W | 263 3.2 10.0 SW | 216 19.2 44.0 21.2
1/27/23 - 2300 26.0 - 39 4.6 20.8 W | 278 2.1 6.3 WNW | 283 21.8 44.0 21.2
1/27/23 - 2200 28.2 - 37 5.2 22.4 WNW | 288 2.2 9.9 WNW | 282 21.8 44.0 21.2
1/27/23 - 2100 30.7 26.6 38 8.2 24.6 SW | 228 4.0 17.1 SW | 218 21.8 44.0 21.2
1/27/23 - 2000 32.4 27.3 37 8.8 25.8 SSW | 208 5.2 16.5 SSW | 212 21.8 44.0 21.2
1/27/23 - 1900 33.6 28.4 38 10.7 26.9 SSW | 205 5.6 18.1 SW | 224 21.8 44.0 21.2
1/27/23 - 1800 34.5 29.0 39 11.8 27.7 S | 189 6.2 21.2 SSW | 204 21.8 44.0 21.2
1/27/23 - 1700 36.7 32.2 31 8.7 28.5 SSW | 195 5.4 18.4 SW | 217 21.8 44.0 18.4
1/27/23 - 1600 38.7 34.6 26 6.5 29.4 S | 190 5.5 14.3 SSW | 206 21.8 44.0 14.3
1/27/23 - 1500 40.3 37.9 23 5.5 30.2 SSW | 199 3.7 10.9 SW | 218 21.8 44.0 14.3
1/27/23 - 1400 40.1 38.3 23 5.7 30.1 SW | 214 3.1 8.9 WSW | 239 21.8 44.0 14.3
1/27/23 - 1300 42.6 - 19 3.3 31.3 SW | 215 2.7 8.7 SSE | 160 21.8 44.0 14.3
1/27/23 - 1200 42.2 - 18 1.4 30.8 SW | 224 2.6 8.9 SW | 224 21.8 43.0 14.3
1/27/23 - 1100 41.6 - 18 1.6 30.4 WSW | 238 2.3 9.0 WNW | 285 21.8 42.8 14.3
1/27/23 - 1000 41.4 - 17 -0.0 30.1 W | 271 - - E | 79 21.8 41.9 14.3
1/27/23 - 0900 39.4 - 18 -0.7 28.9 SW | 232 2.3 13.2 SSE | 154 21.8 40.6 13.7
1/27/23 - 0800 36.4 - 18 -3.6 26.6 WSW | 243 2.5 13.7 SW | 229 21.8 38.3 13.7
1/27/23 - 0700 30.6 27.2 25 -1.5 23.1 W | 260 3.4 10.0 W | 274 21.8 36.2 10.0
1/27/23 - 0600 26.5 - 32 -0.4 20.4 W | 263 1.8 7.1 W | 272 21.8 33.1 9.2
1/27/23 - 0500 32.0 27.5 21 -4.0 23.8 W | 278 4.5 8.2 WNW | 302 23.1 33.1 9.2
1/27/23 - 0400 31.6 27.0 21 -4.4 23.5 W | 281 4.6 8.6 NW | 312 23.1 33.1 9.2
1/27/23 - 0300 27.1 23.2 28 -2.1 20.6 W | 275 3.3 9.2 W | 272 23.1 30.0 9.2
1/27/23 - 0200 27.4 21.9 28 -1.6 20.9 W | 272 4.7 9.0 W | 260 23.1 30.0 9.0
1/27/23 - 0100 26.4 - 30 -1.0 20.3 W | 275 1.6 7.3 W | 262 23.1 29.1 7.3
1/27/23 - 0000 28.3 - 26 -2.0 21.5 W | 278 2.9 8.7 W | 276 12.1 40.6 10.4
1/26/23 - 2300 28.3 25.0 26 -2.5 21.5 W | 268 3.1 7.4 W | 259 12.1 40.6 10.4
1/26/23 - 2200 27.6 - 25 -3.4 20.9 W | 266 2.9 7.8 W | 264 12.1 40.6 10.4
1/26/23 - 2100 24.8 - 31 -1.6 19.1 W | 261 1.7 9.6 SSW | 204 12.1 40.6 10.4
1/26/23 - 2000 24.4 - 34 -0.1 19.0 WSW | 238 1.7 7.5 SSW | 207 12.1 40.6 10.4
1/26/23 - 1900 25.4 - 34 1.2 19.9 W | 266 1.1 6.5 SW | 226 12.1 40.6 10.4
1/26/23 - 1800 27.0 23.3 36 3.5 21.3 W | 271 3.2 8.6 NW | 306 12.1 40.6 10.4
1/26/23 - 1700 28.0 24.1 39 6.2 22.4 W | 259 3.5 8.5 SW | 215 12.1 40.6 10.4
1/26/23 - 1600 35.5 - 28 4.9 27.2 WNW | 282 1.9 10.4 N | 0 12.1 40.6 10.4
1/26/23 - 1500 39.7 - 22 3.9 29.6 NE | 40 1.1 6.9 NNE | 21 12.1 40.6 9.3
1/26/23 - 1400 39.0 - 25 6.1 29.6 E | 85 1.2 7.5 NE | 53 12.1 40.1 9.3
1/26/23 - 1300 38.3 - 22 3.0 28.6 NNE | 23 1.7 7.8 N | 351 12.1 38.9 9.3
1/26/23 - 1200 37.2 - 20 0.2 27.6 NNE | 30 1.8 8.2 N | 350 12.1 38.0 9.3
1/26/23 - 1100 33.2 - 27 2.3 25.4 SSE | 163 0.8 5.2 SSE | 161 12.1 36.4 9.3
1/26/23 - 1000 26.4 - 41 5.7 21.2 SW | 217 1.9 5.2 SSW | 203 12.1 30.3 9.3
1/26/23 - 0900 19.8 - 59 7.7 16.9 SW | 226 0.7 5.4 SW | 218 12.1 24.4 9.3
1/26/23 - 0800 14.1 - 78 8.5 12.9 SW | 231 1.4 6.8 SW | 218 12.1 22.5 9.3
1/26/23 - 0700 14.4 - 83 10.2 13.5 SW | 234 1.6 8.7 SW | 223 12.1 22.5 9.3
1/26/23 - 0600 15.7 - 73 8.7 14.1 WSW | 242 2.4 9.3 SW | 215 13.0 22.5 9.3
1/26/23 - 0500 15.1 - 67 6.1 13.1 WSW | 238 0.3 3.6 SSW | 208 13.6 22.5 9.0
1/26/23 - 0400 18.2 - 64 8.0 15.8 WSW | 237 2.3 8.7 WNW | 288 15.0 22.5 9.0
1/26/23 - 0300 18.5 - 54 4.5 15.4 W | 276 0.9 5.8 W | 270 15.8 22.5 9.0
1/26/23 - 0200 18.8 - 56 5.6 15.8 W | 271 1.3 6.4 W | 264 16.4 22.5 9.0
1/26/23 - 0100 21.3 14.7 55 7.6 18.0 W | 276 4.8 9.0 W | 272 19.3 22.5 9.0
1/26/23 - 0000 17.8 - 63 7.2 15.4 W | 272 1.4 5.9 W | 276 14.5 32.3 16.7
1/25/23 - 2300 18.3 - 62 7.6 15.8 W | 260 1.1 5.5 WNW | 282 14.5 32.3 16.7
1/25/23 - 2200 18.1 - 66 8.7 15.8 W | 267 1.4 6.1 SSW | 202 14.5 32.3 16.7
1/25/23 - 2100 18.6 - 67 9.5 16.4 WSW | 249 1.0 4.5 SSW | 200 14.5 32.3 16.7
1/25/23 - 2000 20.6 - 64 10.4 18.0 WSW | 251 1.3 7.0 SW | 223 14.5 32.3 16.7
1/25/23 - 1900 20.7 - 67 11.3 18.2 WSW | 254 1.7 6.2 SW | 223 14.5 32.3 16.7
1/25/23 - 1800 24.0 - 60 12.2 20.8 WSW | 255 0.7 4.0 SW | 218 14.5 32.3 16.7
1/25/23 - 1700 27.2 - 53 12.2 23.0 N | 9 1.0 6.1 N | 0 14.5 32.3 16.7
1/25/23 - 1600 29.8 - 49 13.1 24.9 NNE | 19 2.4 8.5 NNW | 342 14.5 32.3 16.7
1/25/23 - 1500 30.7 - 48 13.6 25.6 NNE | 21 2.5 10.8 N | 352 14.5 32.3 16.7
1/25/23 - 1400 31.5 27.2 48 13.8 26.2 NNE | 12 4.2 13.5 NNW | 334 14.5 32.3 16.7
1/25/23 - 1300 31.4 27.0 47 13.7 26.1 N | 10 4.3 16.7 NNW | 341 14.5 32.3 16.7
1/25/23 - 1200 30.8 - 49 14.0 25.8 ENE | 61 2.1 9.3 SE | 130 14.5 32.1 9.3
1/25/23 - 1100 28.4 - 53 13.3 24.0 NE | 54 1.6 7.5 ENE | 58 14.5 29.8 7.5
1/25/23 - 1000 26.6 - 55 12.8 22.7 E | 101 0.6 6.1 NE | 41 14.5 28.1 7.1
1/25/23 - 0900 21.0 - 65 11.0 18.4 SW | 223 1.0 5.1 SW | 219 14.5 24.8 7.1
1/25/23 - 0800 16.0 - 70 7.9 14.2 WSW | 249 1.2 5.2 W | 264 14.5 24.8 7.1
1/25/23 - 0700 17.8 - 65 8.1 15.5 W | 259 3.0 6.6 W | 265 15.8 24.8 7.1
1/25/23 - 0600 18.5 - 64 8.3 16.1 W | 269 0.7 4.7 W | 267 16.9 24.8 7.1
1/25/23 - 0500 20.5 - 61 9.2 17.7 W | 266 1.8 5.8 SW | 217 18.4 24.8 7.1
1/25/23 - 0400 22.6 18.4 54 8.3 19.0 WSW | 257 3.2 7.0 W | 267 20.0 24.8 7.1
1/25/23 - 0300 22.6 - 55 8.9 19.1 WNW | 286 1.7 6.2 W | 262 20.0 24.8 7.1
1/25/23 - 0200 21.9 - 55 8.1 18.5 W | 274 1.7 7.1 W | 270 20.0 24.8 7.1
1/25/23 - 0100 22.2 - 54 7.9 18.7 W | 270 1.3 7.1 W | 274 20.5 24.8 7.1
1/25/23 - 0000 22.0 - 54 8.0 18.5 W | 262 1.8 7.3 SW | 219 13.9 36.1 11.2
1/24/23 - 2300 22.0 - 56 8.8 18.7 W | 264 1.4 6.1 SW | 222 13.9 36.1 11.2
1/24/23 - 2200 22.3 - 56 8.9 18.9 W | 263 1.6 6.2 W | 260 13.9 36.1 11.2
1/24/23 - 2100 20.2 - 60 8.5 17.4 W | 259 0.5 4.7 WSW | 254 13.9 36.1 11.2
1/24/23 - 2000 20.4 - 55 7.0 17.2 W | 266 1.0 5.6 SW | 220 13.9 36.1 11.2
1/24/23 - 1900 21.1 - 53 6.5 17.6 WSW | 249 1.6 5.9 SW | 222 13.9 36.1 11.2
1/24/23 - 1800 22.7 - 51 7.3 18.9 W | 260 2.0 6.7 W | 266 13.9 36.1 11.2
1/24/23 - 1700 24.9 20.7 48 7.9 20.6 WSW | 257 3.4 7.1 W | 268 13.9 36.1 11.2
1/24/23 - 1600 30.2 - 39 8.1 24.3 WSW | 252 2.5 6.9 W | 268 13.9 36.1 11.2
1/24/23 - 1500 34.6 - 31 7.1 27.0 WNW | 291 1.1 9.8 NNW | 341 13.9 36.1 11.2
1/24/23 - 1400 35.3 - 28 5.6 27.2 SE | 126 - - WNW | 290 13.9 36.1 11.2
1/24/23 - 1300 34.8 - 25 2.3 26.4 NE | 46 0.9 6.4 NE | 37 13.9 36.1 11.2
1/24/23 - 1200 34.1 - 24 1.0 25.7 NE | 45 1.3 5.7 NNE | 30 13.9 35.2 11.2
1/24/23 - 1100 32.5 - 25 0.9 24.7 E | 94 0.9 6.9 ENE | 69 13.9 33.6 11.2
1/24/23 - 1000 28.0 - 35 3.5 22.0 SSW | 196 0.5 4.2 SW | 218 13.9 31.2 11.2
1/24/23 - 0900 24.0 - 39 2.7 19.1 WSW | 242 1.2 5.7 SW | 227 13.9 26.5 11.2
1/24/23 - 0800 19.5 15.0 44 1.1 15.6 W | 260 3.1 11.2 SW | 214 13.9 21.6 11.2
1/24/23 - 0700 19.6 - 43 0.5 15.6 W | 266 2.7 7.1 W | 264 13.9 20.6 9.0
1/24/23 - 0600 18.8 - 53 4.2 15.6 W | 259 2.4 9.0 SW | 215 13.9 20.5 9.0
1/24/23 - 0500 16.0 - 69 7.8 14.2 W | 270 1.0 7.4 SW | 222 13.9 18.8 7.4
1/24/23 - 0400 15.5 - 65 5.8 13.4 NW | 308 0.4 5.2 W | 268 13.9 18.8 7.1
1/24/23 - 0300 17.2 - 42 -2.3 13.5 WNW | 282 1.6 6.7 W | 265 14.9 18.8 7.1
1/24/23 - 0200 16.3 - 44 -1.6 12.9 W | 261 1.3 7.1 SW | 221 14.9 18.4 7.1
1/24/23 - 0100 16.8 - 41 -2.7 13.1 WSW | 245 1.2 6.5 SSW | 202 15.8 18.2 6.5
1/24/23 - 0000 18.2 - 35 -4.8 13.9 WSW | 241 1.4 6.2 SW | 216 9.0 28.4 25.0
1/23/23 - 2300 19.6 - 30 -7.2 14.8 SW | 227 0.9 6.5 NNE | 25 9.0 28.4 25.0
1/23/23 - 2200 17.8 - 33 -6.5 13.5 SW | 233 0.4 4.3 SE | 133 9.0 28.4 25.0
1/23/23 - 2100 17.2 - 35 -5.9 13.0 WSW | 253 1.3 5.6 SSW | 209 9.0 28.4 25.0
1/23/23 - 2000 16.1 - 39 -4.4 12.4 WSW | 252 1.3 6.8 SSW | 210 9.0 28.4 25.0
1/23/23 - 1900 16.4 - 45 -1.4 13.0 WSW | 250 0.8 6.4 SW | 220 9.0 28.4 25.0
1/23/23 - 1800 18.6 - 46 1.1 15.0 WSW | 248 2.2 7.0 SW | 223 9.0 28.4 25.0
1/23/23 - 1700 21.8 - 42 2.0 17.4 WSW | 258 1.8 6.3 W | 264 9.0 28.4 25.0
1/23/23 - 1600 27.1 23.4 28 -1.6 20.8 N | 10 3.3 12.5 NW | 319 9.0 28.4 25.0
1/23/23 - 1500 27.7 23.2 29 -0.7 21.2 NNE | 14 3.9 13.0 N | 1 9.0 28.4 25.0
1/23/23 - 1400 26.6 22.3 33 1.1 20.7 NNE | 19 3.7 12.9 N | 350 9.0 27.7 25.0
1/23/23 - 1300 24.8 19.5 35 0.8 19.4 NNE | 16 4.2 16.5 NNW | 344 9.0 26.2 25.0
1/23/23 - 1200 23.3 18.5 36 0.5 18.3 N | 10 3.7 14.4 NW | 309 9.0 24.9 25.0
1/23/23 - 1100 19.3 14.4 48 2.9 15.8 NNE | 28 3.3 14.4 ENE | 67 9.0 21.1 25.0
1/23/23 - 1000 14.4 - 68 5.7 12.6 ENE | 62 - - NE | 38 9.0 17.2 25.0
1/23/23 - 0900 11.2 5.2 79 5.9 10.2 NE | 36 3.3 14.9 NW | 318 9.0 13.0 25.0
1/23/23 - 0800 10.3 - 82 5.9 9.6 NE | 34 1.5 9.8 N | 5 9.0 10.8 25.0
1/23/23 - 0700 9.9 - 82 5.5 9.2 ENE | 62 1.8 11.2 ESE | 114 9.0 10.7 25.0
1/23/23 - 0600 9.3 - 82 5.1 8.7 NE | 53 - - SSE | 155 9.0 10.7 25.0
1/23/23 - 0500 9.4 2.1 80 4.3 8.6 NNE | 12 3.9 16.8 NNW | 341 9.0 10.7 25.0
1/23/23 - 0400 9.6 1.3 80 4.5 8.8 N | 4 4.6 18.4 NNW | 346 9.0 10.7 25.0
1/23/23 - 0300 9.6 1.6 79 4.3 8.8 N | 7 4.4 14.1 ENE | 57 9.0 10.7 25.0
1/23/23 - 0200 9.3 0.8 78 3.9 8.4 N | 0 4.8 19.2 NNW | 328 9.0 10.7 25.0
1/23/23 - 0100 9.9 -1.8 81 5.1 9.1 N | 0 7.7 25.0 WNW | 303 9.1 10.7 25.0
1/23/23 - 0000 11.0 3.8 83 6.9 10.3 NNE | 30 4.0 17.1 N | 354 10.7 35.7 21.7
1/22/23 - 2300 11.2 - 84 7.4 10.5 NE | 43 2.4 17.0 NNW | 346 10.8 35.7 21.7
1/22/23 - 2200 11.1 5.2 84 7.3 10.4 NNE | 28 3.2 15.9 NW | 324 10.8 35.7 21.7
1/22/23 - 2100 11.4 - 87 8.2 10.8 ENE | 59 1.6 10.4 SE | 140 10.9 35.7 21.7
1/22/23 - 2000 12.0 6.5 80 7.2 11.1 NNE | 31 3.1 18.6 NNW | 338 11.6 35.7 21.7
1/22/23 - 1900 12.7 6.6 77 6.8 11.5 NNE | 29 3.5 21.7 NNW | 347 12.2 35.7 21.7
1/22/23 - 1800 14.2 - 76 8.2 12.9 ENE | 60 1.7 8.8 ESE | 102 13.4 35.7 17.0
1/22/23 - 1600 17.1 11.0 66 7.8 15.0 NNE | 24 3.9 17.0 NNE | 32 14.6 35.7 17.0
1/22/23 - 1500 18.4 - 65 8.6 16.0 NNE | 19 2.7 8.7 NE | 45 14.6 35.7 15.3
1/22/23 - 1400 18.1 13.0 70 9.9 16.1 NNE | 25 3.3 10.8 NNW | 334 14.6 35.7 15.3
1/22/23 - 1300 18.7 14.0 71 10.8 16.7 N | 5 3.2 10.7 NNW | 347 14.6 35.7 15.3
1/22/23 - 1200 19.6 15.2 71 11.8 17.6 NNE | 24 3.1 8.2 NNE | 32 14.6 35.7 15.3
1/22/23 - 1100 21.6 - 68 12.6 19.2 NE | 56 1.6 7.0 NE | 40 14.6 35.7 15.3
1/22/23 - 1000 21.0 - 67 11.9 18.6 SE | 130 1.3 6.6 SE | 131 14.6 35.7 15.3
1/22/23 - 0900 17.2 - 77 11.2 15.7 SSW | 208 1.2 5.0 SSE | 164 14.6 35.7 15.3
1/22/23 - 0800 17.9 12.8 77 11.4 16.3 WNW | 284 3.4 15.1 NW | 306 15.3 35.7 15.3
1/22/23 - 0700 27.0 - 29 -1.2 20.7 WSW | 258 1.3 8.2 NNW | 340 24.2 35.7 15.3
1/22/23 - 0600 31.2 - 23 -2.7 23.4 W | 262 2.4 15.3 SW | 231 24.2 35.7 15.3
1/22/23 - 0500 31.5 - 25 -0.8 23.8 SSW | 204 2.0 14.3 SSW | 194 24.2 35.7 14.3
1/22/23 - 0400 27.1 - 39 4.5 21.6 WSW | 250 1.9 10.0 W | 263 24.2 35.7 11.9
1/22/23 - 0300 27.5 - 38 5.2 21.9 W | 275 2.5 9.7 WNW | 296 24.6 35.7 11.9
1/22/23 - 0200 32.4 29.4 26 1.5 24.7 SW | 218 3.2 11.9 SW | 225 28.0 35.7 11.9
1/22/23 - 0100 32.8 30.2 27 2.0 25.0 W | 263 3.1 11.0 WNW | 291 28.0 35.7 11.0
1/22/23 - 0000 30.2 27.0 37 7.0 24.1 W | 276 3.2 9.3 WNW | 300 10.7 40.0 10.3
1/21/23 - 2300 31.6 27.1 33 5.7 24.8 WNW | 283 4.4 10.3 NW | 308 10.7 40.0 10.3
1/21/23 - 2200 25.7 - 48 8.7 21.3 W | 276 1.4 8.1 W | 267 10.7 40.0 8.1
1/21/23 - 2100 25.3 - 49 8.9 21.0 W | 267 1.2 6.9 W | 259 10.7 40.0 7.5
1/21/23 - 2000 24.2 - 54 10.0 20.5 W | 270 - - NW | 321 10.7 40.0 7.5
1/21/23 - 1900 24.6 - 54 10.3 20.8 WSW | 257 2.0 6.2 W | 276 10.7 40.0 7.2
1/21/23 - 1800 26.7 - 49 9.9 22.2 W | 266 2.2 7.1 W | 266 10.7 40.0 7.2
1/21/23 - 1700 27.9 - 43 8.4 22.7 W | 266 2.5 6.9 W | 265 10.7 40.0 7.2
1/21/23 - 1600 31.2 27.4 41 10.0 25.2 WSW | 258 3.8 7.2 W | 260 10.7 40.0 7.2
1/21/23 - 1500 36.0 - 35 11.1 28.6 WSW | 249 2.0 6.2 SW | 225 10.7 40.0 6.2
1/21/23 - 1400 38.0 - 30 9.6 29.5 SW | 221 0.9 4.2 SW | 223 10.7 40.0 6.2
1/21/23 - 1300 38.3 - 28 7.9 29.4 SSW | 213 0.5 4.2 SW | 221 10.7 40.0 6.2
1/21/23 - 1200 35.7 - 25 3.5 27.2 SSW | 200 0.9 4.8 SW | 230 10.7 37.8 6.2
1/21/23 - 1100 32.6 - 32 5.7 25.5 S | 188 - - SSW | 212 10.7 34.8 6.2
1/21/23 - 1000 29.1 - 35 4.7 23.0 SSW | 212 0.7 4.3 SSW | 212 10.7 31.0 6.2
1/21/23 - 0900 23.2 - 43 3.9 18.7 WSW | 255 0.9 6.2 SSW | 210 10.7 26.6 6.2
1/21/23 - 0800 16.3 - 46 -0.8 13.0 NW | 310 0.5 4.5 WNW | 291 10.7 19.6 5.2
1/21/23 - 0700 15.7 - 46 -1.7 12.4 NW | 316 0.3 4.3 W | 265 10.7 19.6 5.2
1/21/23 - 0600 15.5 - 47 -1.5 12.3 NW | 316 0.5 5.2 W | 264 10.7 19.6 5.2
1/21/23 - 0500 16.4 - 46 -0.8 13.0 WNW | 299 0.5 4.8 W | 273 10.7 19.3 4.8
1/21/23 - 0400 15.6 - 46 -1.6 12.3 NW | 321 0.2 1.8 W | 268 10.7 16.4 3.4
1/21/23 - 0300 14.5 - 45 -3.0 11.3 NW | 324 0.2 2.0 NW | 311 10.7 15.5 3.4
1/21/23 - 0200 13.4 - 44 -4.5 10.3 NW | 317 0.2 2.8 W | 259 10.7 15.5 3.4
1/21/23 - 0100 12.2 - 44 -5.4 9.3 NW | 318 - - NNW | 337 10.7 13.0 3.4
1/21/23 - 0000 13.7 - 41 -5.9 10.4 WNW | 297 - - NNW | 347 0.7 26.5 13.2
1/20/23 - 2300 14.7 9.6 38 -6.3 11.1 WNW | 284 3.1 7.9 W | 277 0.7 26.5 13.2
1/20/23 - 2200 14.1 - 41 -5.6 10.7 W | 278 1.6 7.6 SW | 225 0.7 26.5 13.2
1/20/23 - 2100 12.4 - 46 -4.7 9.6 WNW | 294 0.7 7.3 W | 265 0.7 26.5 13.2
1/20/23 - 2000 13.4 - 46 -3.7 10.4 W | 275 1.7 6.2 SW | 214 0.7 26.5 13.2
1/20/23 - 1900 14.4 - 46 -2.5 11.4 W | 266 1.6 7.1 SSW | 212 0.7 26.5 13.2
1/20/23 - 1800 14.7 - 50 -0.8 11.8 W | 266 2.2 6.1 W | 274 0.7 26.5 13.2
1/20/23 - 1700 17.7 - 47 0.6 14.2 WSW | 256 2.7 7.3 W | 267 0.7 26.5 13.2
1/20/23 - 1600 23.5 - 36 0.2 18.4 NW | 311 2.0 8.7 NW | 324 0.7 26.5 13.2
1/20/23 - 1500 25.4 - 38 3.3 20.2 NE | 44 1.4 7.8 NNW | 346 0.7 26.5 13.2
1/20/23 - 1400 25.7 - 38 3.4 20.4 NE | 54 1.7 7.6 NE | 35 0.7 26.5 13.2
1/20/23 - 1300 24.3 - 42 4.3 19.6 NNE | 32 2.1 7.9 N | 349 0.7 25.7 13.2
1/20/23 - 1200 22.7 - 48 5.8 18.7 NNE | 23 1.3 7.0 NW | 317 0.7 24.4 13.2
1/20/23 - 1100 20.0 - 50 4.3 16.5 N | 1 2.7 9.1 NW | 317 0.7 21.9 13.2
1/20/23 - 1000 17.2 12.2 55 3.9 14.4 N | 1 3.2 13.2 NNW | 339 0.7 18.8 13.2
1/20/23 - 0900 11.2 - 71 3.5 9.8 SSW | 211 0.8 3.9 SSW | 207 0.7 14.7 7.4
1/20/23 - 0800 4.2 - 83 0.1 4.0 SW | 231 0.8 6.6 SW | 225 0.7 8.5 7.4
1/20/23 - 0700 2.1 - 86 -1.0 2.2 WSW | 257 0.7 4.9 W | 268 0.7 8.5 7.4
1/20/23 - 0600 3.7 - 86 0.5 3.6 WSW | 244 1.1 3.9 W | 276 2.9 8.5 7.4
1/20/23 - 0500 5.4 - 86 2.1 5.2 WSW | 250 0.4 3.5 W | 271 3.6 8.5 7.4
1/20/23 - 0400 7.2 - 84 3.3 6.8 W | 267 0.3 2.8 N | 351 3.6 8.5 7.4
1/20/23 - 0300 7.8 - 82 3.3 7.2 NNE | 17 1.0 7.4 NNW | 340 3.6 8.5 7.4
1/20/23 - 0200 6.4 - 84 2.7 6.1 WSW | 247 0.3 2.3 SW | 217 3.6 7.0 3.7
1/20/23 - 0100 4.7 - 88 1.9 4.7 WSW | 242 0.4 3.7 SW | 222 3.6 6.2 3.7
1/20/23 - 0000 4.5 - 87 1.6 4.5 WNW | 289 0.5 5.8 NNW | 338 3.3 23.9 38.7
1/19/23 - 2300 5.8 - 87 2.7 5.6 WNW | 290 1.2 7.6 ESE | 115 3.9 23.9 38.7
1/19/23 - 2200 6.5 - 80 1.5 5.9 NW | 307 1.6 9.2 N | 0 4.9 23.9 38.7
1/19/23 - 2100 6.6 - 85 2.9 6.2 WSW | 247 - - WSW | 255 4.9 23.9 38.7
1/19/23 - 2000 10.2 - 87 7.1 9.8 SE | 126 0.5 5.0 SE | 126 8.5 23.9 38.7
1/19/23 - 1900 11.5 - 85 7.9 10.8 NNE | 28 1.2 6.0 N | 351 10.9 23.9 38.7
1/19/23 - 1800 12.6 - 83 8.5 11.8 NNE | 28 1.4 7.3 NNE | 23 11.7 23.9 38.7
1/19/23 - 1700 14.5 - 77 8.6 13.2 N | 3 2.2 10.1 NNW | 339 13.7 23.9 38.7
1/19/23 - 1600 16.4 - 69 8.1 14.5 N | 7 2.0 10.6 NNW | 348 15.0 23.9 38.7
1/19/23 - 1500 17.7 - 62 6.9 15.2 NNE | 13 2.3 9.1 NE | 55 16.6 23.9 38.7
1/19/23 - 1400 18.5 12.0 68 9.5 16.3 N | 11 4.4 14.0 NW | 317 17.5 23.9 38.7
1/19/23 - 1300 20.1 13.6 73 12.7 18.1 N | 9 4.5 12.6 NNW | 346 17.5 23.9 38.7
1/19/23 - 1200 22.6 - 68 13.5 20.0 ENE | 71 2.6 18.0 SW | 223 17.5 23.9 38.7
1/19/23 - 1100 21.2 14.4 78 15.4 19.6 S | 185 5.0 24.3 SW | 231 17.5 23.1 38.7
1/19/23 - 1000 20.2 11.2 88 17.3 19.3 WSW | 250 7.1 25.8 WNW | 294 17.5 22.6 38.7
1/19/23 - 0900 20.4 9.5 93 18.6 19.8 WSW | 253 9.7 31.0 WNW | 287 17.5 22.6 38.7
1/19/23 - 0800 21.3 9.4 94 19.9 20.8 W | 259 11.9 38.7 WNW | 292 17.5 22.6 38.7
1/19/23 - 0700 22.2 - 91 20.0 21.4 WSW | 256 - - N | 10 17.5 22.6 31.0
1/19/23 - 0600 21.7 13.3 94 20.3 21.2 WSW | 252 6.6 20.4 W | 270 17.5 22.2 31.0
1/19/23 - 0500 18.9 9.2 96 17.8 18.6 WSW | 245 7.6 31.0 W | 276 17.5 20.4 31.0
1/19/23 - 0400 17.8 6.8 95 16.6 17.4 SW | 227 9.0 30.9 WSW | 242 17.5 20.0 30.9
1/19/23 - 0300 18.2 9.3 94 16.8 17.7 WSW | 237 6.5 27.0 W | 272 17.6 20.0 30.3
1/19/23 - 0200 19.0 10.9 94 17.4 18.4 WSW | 249 5.8 24.7 WNW | 285 18.6 20.0 30.3
1/19/23 - 0100 19.4 11.6 92 17.4 18.8 SW | 228 5.6 30.3 WSW | 238 18.8 20.0 30.3
1/19/23 - 0000 20.6 13.4 87 17.5 19.7 SW | 223 5.3 26.8 ESE | 118 5.1 29.5 26.8
1/18/23 - 2300 21.3 14.7 80 16.0 19.7 WSW | 245 4.8 19.2 W | 281 5.1 29.5 20.7
1/18/23 - 2200 22.2 15.3 78 16.2 20.4 SW | 228 5.3 20.7 W | 279 5.1 29.5 20.7
1/18/23 - 2100 22.7 17.0 75 15.8 20.7 WSW | 246 4.3 17.0 W | 278 5.1 29.5 20.1
1/18/23 - 2000 23.1 16.5 70 14.9 20.7 WSW | 246 5.1 20.1 WNW | 282 5.1 29.5 20.1
1/18/23 - 1900 22.8 17.2 81 17.9 21.2 SSW | 202 4.1 15.7 W | 278 5.1 29.5 16.8
1/18/23 - 1800 22.8 - 89 20.1 21.9 SW | 214 2.4 11.7 SW | 222 5.1 29.5 16.8
1/18/23 - 1700 23.0 - 94 21.6 22.5 WSW | 239 2.3 13.9 W | 263 5.1 29.5 16.8
1/18/23 - 1600 23.9 20.0 98 23.4 23.6 SSW | 204 3.1 12.7 SSW | 213 5.1 29.5 16.8
1/18/23 - 1500 24.1 17.8 99 23.8 23.9 SSW | 194 5.0 16.8 SW | 221 5.1 29.5 16.8
1/18/23 - 1400 24.7 19.4 99 24.4 24.5 SSW | 196 4.2 15.0 SSW | 203 5.1 29.5 15.0
1/18/23 - 1300 27.5 - 99 27.3 27.3 S | 173 1.6 9.6 SW | 217 5.1 29.5 9.6
1/18/23 - 1200 28.0 - 100 28.0 27.9 SSW | 192 0.8 4.4 SW | 219 5.1 29.1 8.4
1/18/23 - 1100 26.1 - 99 26.0 25.9 S | 181 0.5 3.5 N | 352 5.1 27.5 8.4
1/18/23 - 1000 21.8 - 97 21.1 21.5 S | 185 0.8 4.5 SSW | 210 5.1 24.0 8.4
1/18/23 - 0900 16.8 - 96 15.9 16.5 SW | 236 1.0 5.6 SW | 226 5.1 20.4 8.4
1/18/23 - 0800 9.7 - 93 8.2 9.6 WSW | 252 1.4 8.4 SW | 221 5.1 11.4 8.4
1/18/23 - 0700 7.9 - 92 6.1 7.8 WNW | 291 0.7 5.2 W | 277 5.1 8.5 7.8
1/18/23 - 0600 7.0 - 92 5.1 7.0 WNW | 289 0.9 6.7 SW | 214 5.1 7.8 7.8
1/18/23 - 0500 6.1 - 92 4.2 6.1 WNW | 290 0.9 6.1 WNW | 282 5.1 7.3 7.8
1/18/23 - 0400 6.6 - 92 4.7 6.6 WNW | 288 1.0 6.1 W | 264 5.1 7.3 7.8
1/18/23 - 0300 5.6 - 91 3.6 5.6 WSW | 253 1.3 6.5 SSW | 202 5.1 7.3 7.8
1/18/23 - 0200 6.4 - 91 4.4 6.4 WSW | 250 1.6 6.2 WSW | 242 6.0 7.3 7.8
1/18/23 - 0100 6.8 - 92 4.9 6.8 W | 265 1.2 7.8 SW | 214 6.2 7.3 7.8
1/18/23 - 0000 7.3 - 92 5.4 7.3 W | 262 1.5 6.8 SW | 217 6.8 19.0 15.0
1/17/23 - 2300 8.4 - 92 6.6 8.3 W | 266 1.6 7.1 W | 267 7.2 19.0 15.0
1/17/23 - 2200 8.8 - 92 7.1 8.7 W | 270 1.6 6.3 W | 276 7.2 19.0 15.0
1/17/23 - 2100 9.2 - 92 7.4 9.0 W | 269 1.9 6.7 W | 276 7.2 19.0 15.0
1/17/23 - 2000 8.9 - 93 7.3 8.8 W | 262 1.8 8.5 SW | 220 7.2 19.0 15.0
1/17/23 - 1900 9.2 - 93 7.6 9.1 W | 267 1.7 6.4 W | 280 7.2 19.0 15.0
1/17/23 - 1800 9.8 - 93 8.1 9.6 W | 264 1.9 8.6 NW | 321 7.2 19.0 15.0
1/17/23 - 1700 11.5 - 93 9.8 11.3 W | 262 2.6 6.2 W | 262 7.2 19.0 15.0
1/17/23 - 1600 15.6 - 94 14.3 15.3 WSW | 251 2.3 6.1 W | 271 7.2 19.0 15.0
1/17/23 - 1500 18.4 - 96 17.6 18.1 NE | 54 0.9 4.8 N | 355 7.2 19.0 15.0
1/17/23 - 1400 17.9 - 96 17.0 17.6 ENE | 58 1.4 7.0 SSE | 149 7.2 18.7 15.0
1/17/23 - 1300 16.7 - 96 15.7 16.4 N | 354 2.7 12.2 NNW | 342 7.2 17.6 15.0
1/17/23 - 1200 15.4 9.6 95 14.3 15.2 NNW | 340 3.6 13.0 NW | 324 7.2 16.6 15.0
1/17/23 - 1100 15.7 - 95 14.6 15.4 N | 5 2.0 11.2 NNW | 346 7.2 16.6 15.0
1/17/23 - 1000 15.0 - 95 13.8 14.7 NNW | 344 1.6 15.0 NNW | 345 7.2 15.3 15.0
1/17/23 - 0900 13.3 - 95 12.1 13.1 WSW | 248 0.4 3.1 WNW | 289 7.2 15.0